Time;durP1;ratioP1;P1;durP2;ratioP2;P2;SDS_P1;SDS_P2;PMS_P1;PMS_P2;Temp;Humidity;BMP_temperature;BMP_pressure;BME280_temperature;BME280_humidity;BME280_pressure;Samples;Min_cycle;Max_cycle;Signal;HPM_P1;HPM_P2
2022/03/23 00:00:03;;;;;;;;;;;;;;;7.13;100.00;103208.94;5057522;28;1255;-75
2022/03/23 00:02:29;;;;;;;;;;;;;;;7.06;100.00;103208.22;5058004;28;879;-75
2022/03/23 00:04:55;;;;;;;;;;;;;;;6.92;100.00;103205.06;5057981;28;1897;-75
2022/03/23 00:07:21;;;;;;;;;;;;;;;6.79;100.00;103209.00;5058071;28;955;-75
2022/03/23 00:09:48;;;;;;;;;;;;;;;6.70;100.00;103204.78;5057429;28;1248;-75
2022/03/23 00:12:14;;;;;;;;;;;;;;;6.63;100.00;103207.66;5057859;28;810;-75
2022/03/23 00:14:40;;;;;;;;;;;;;;;6.57;100.00;103206.88;5073006;28;983;-75
2022/03/23 00:17:06;;;;;;;;;;;;;;;6.53;100.00;103201.69;5057661;28;739;-75
2022/03/23 00:19:32;;;;;;;;;;;;;;;6.49;100.00;103200.88;5057317;28;1331;-75
2022/03/23 00:21:58;;;;;;;;;;;;;;;6.42;100.00;103204.63;5058137;28;1036;-75
2022/03/23 00:24:25;;;;;;;;;;;;;;;6.38;100.00;103202.06;5057657;28;1923;-75
2022/03/23 00:26:51;;;;;;;;;;;;;;;6.42;100.00;103198.41;5057505;28;802;-75
2022/03/23 00:29:17;;;;;;;;;;;;;;;6.45;100.00;103199.19;5057134;28;678;-75
2022/03/23 00:31:42;;;;;;;;;;;;;;;6.56;100.00;103199.78;5057469;28;1352;-75
2022/03/23 00:34:08;;;;;;;;;;;;;;;6.52;100.00;103198.13;5072614;28;938;-75
2022/03/23 00:36:34;;;;;;;;;;;;;;;6.45;100.00;103193.00;5057746;28;682;-75
2022/03/23 00:39:00;;;;;;;;;;;;;;;6.32;100.00;103192.44;5056904;28;883;-75
2022/03/23 00:41:26;;;;;;;;;;;;;;;6.26;100.00;103195.25;5057190;28;1275;-75
2022/03/23 00:43:52;;;;;;;;;;;;;;;6.22;100.00;103199.78;5072781;28;863;-75
2022/03/23 00:46:19;;;;;;;;;;;;;;;6.26;100.00;103192.56;5057402;28;1894;-75
2022/03/23 00:48:45;;;;;;;;;;;;;;;6.29;100.00;103193.41;5056836;28;996;-75
2022/03/23 00:51:11;;;;;;;;;;;;;;;6.23;100.00;103203.31;5072689;28;1184;-75
2022/03/23 00:53:37;;;;;;;;;;;;;;;6.16;100.00;103194.59;5057092;28;845;-75
2022/03/23 00:56:04;;;;;;;;;;;;;;;6.10;100.00;103196.56;5057189;28;810;-75
2022/03/23 00:58:30;;;;;;;;;;;;;;;6.08;100.00;103199.22;5056624;28;958;-75
2022/03/23 01:00:56;;;;;;;;;;;;;;;6.05;100.00;103199.31;5072153;28;1192;-75
2022/03/23 01:03:22;;;;;;;;;;;;;;;6.00;100.00;103194.09;5056807;28;907;-75
2022/03/23 01:05:51;;;;;;;;;;;;;;;6.08;100.00;103201.03;5056352;28;1886;-75
2022/03/23 01:08:17;;;;;;;;;;;;;;;6.09;100.00;103198.31;5056797;28;963;-75
2022/03/23 01:10:43;;;;;;;;;;;;;;;6.09;100.00;103197.44;5056720;28;1197;-75
2022/03/23 01:13:10;;;;;;;;;;;;;;;6.09;100.00;103192.09;5056703;28;871;-75
2022/03/23 01:15:36;;;;;;;;;;;;;;;6.10;100.00;103197.44;5056522;28;832;-75
2022/03/23 01:18:03;;;;;;;;;;;;;;;6.01;100.00;103192.31;5056609;28;867;-75
2022/03/23 01:20:30;;;;;;;;;;;;;;;5.93;100.00;103197.81;5055757;28;1205;-75
2022/03/23 01:22:56;;;;;;;;;;;;;;;5.87;100.00;103202.38;5056467;28;885;-75
2022/03/23 01:25:22;;;;;;;;;;;;;;;5.80;100.00;103193.66;5056530;28;1898;-75
2022/03/23 01:27:48;;;;;;;;;;;;;;;5.76;100.00;103191.97;5056437;28;899;-75
2022/03/23 01:30:16;;;;;;;;;;;;;;;5.84;100.00;103195.34;5055958;28;1272;-75
2022/03/23 01:32:43;;;;;;;;;;;;;;;5.91;100.00;103201.44;5071978;28;881;-75
2022/03/23 01:35:10;;;;;;;;;;;;;;;5.93;100.00;103196.94;5056348;28;842;-75
2022/03/23 01:37:36;;;;;;;;;;;;;;;5.94;100.00;103194.25;5056120;28;883;-75
2022/03/23 01:40:06;;;;;;;;;;;;;;;5.98;100.00;103187.91;5055583;28;1213;-75
2022/03/23 01:42:32;;;;;;;;;;;;;;;5.98;100.00;103193.25;5056072;28;791;-75
2022/03/23 01:44:58;;;;;;;;;;;;;;;5.96;100.00;103188.88;5056039;28;1965;-75
2022/03/23 01:47:24;;;;;;;;;;;;;;;5.99;100.00;103191.44;5056163;28;810;-75
2022/03/23 01:49:54;;;;;;;;;;;;;;;5.96;100.00;103189.75;5055454;28;1205;-75
2022/03/23 01:52:23;;;;;;;;;;;;;;;5.85;100.00;103188.22;5056045;28;798;-75
2022/03/23 01:54:50;;;;;;;;;;;;;;;5.78;100.00;103182.16;5055926;28;850;-75
2022/03/23 01:57:19;;;;;;;;;;;;;;;5.86;100.00;103182.84;5055823;28;1001;-75
2022/03/23 01:59:45;;;;;;;;;;;;;;;5.84;100.00;103176.69;5055418;28;1252;-75
2022/03/23 02:02:11;;;;;;;;;;;;;;;5.91;100.00;103177.47;5055945;28;811;-75
2022/03/23 02:04:38;;;;;;;;;;;;;;;5.89;100.00;103180.09;5071158;28;2339;-75
2022/03/23 02:07:04;;;;;;;;;;;;;;;5.94;100.00;103177.38;5070948;28;920;-75
2022/03/23 02:09:31;;;;;;;;;;;;;;;6.00;100.00;103174.59;5053947;28;857;-75
2022/03/23 02:12:01;;;;;;;;;;;;;;;6.02;100.00;103170.97;5055791;28;814;-75
2022/03/23 02:14:27;;;;;;;;;;;;;;;5.98;100.00;103171.06;5055676;28;862;-75
2022/03/23 02:16:53;;;;;;;;;;;;;;;6.03;100.00;103170.03;5055002;28;822;-75
2022/03/23 02:19:21;;;;;;;;;;;;;;;6.03;100.00;103171.84;5055247;28;809;-75
2022/03/23 02:21:49;;;;;;;;;;;;;;;5.87;100.00;103165.94;5055410;28;1173;-75
2022/03/23 02:24:16;;;;;;;;;;;;;;;5.66;100.00;103171.78;5055357;28;959;-75
2022/03/23 02:26:43;;;;;;;;;;;;;;;5.52;100.00;103166.78;5055163;28;1906;-75
2022/03/23 02:29:09;;;;;;;;;;;;;;;5.44;100.00;103174.06;5055370;28;799;-75
2022/03/23 02:31:36;;;;;;;;;;;;;;;5.29;100.00;103169.03;5055186;28;1165;-75
2022/03/23 02:34:03;;;;;;;;;;;;;;;5.18;100.00;103163.94;5055093;28;845;-75
2022/03/23 02:36:30;;;;;;;;;;;;;;;5.13;100.00;103173.81;5070586;28;845;-75
2022/03/23 02:38:56;;;;;;;;;;;;;;;5.09;100.00;103169.47;5054597;28;821;-75
2022/03/23 02:41:22;;;;;;;;;;;;;;;5.11;100.00;103164.97;5054974;28;1260;-75
2022/03/23 02:43:49;;;;;;;;;;;;;;;5.10;100.00;103169.41;5055131;28;814;-75
2022/03/23 02:46:20;;;;;;;;;;;;;;;5.06;100.00;103161.53;5055059;28;1906;-75
2022/03/23 02:48:47;;;;;;;;;;;;;;;5.02;100.00;103163.41;5054742;28;539;-75
2022/03/23 02:51:14;;;;;;;;;;;;;;;5.08;100.00;103165.91;5054715;28;1193;-75
2022/03/23 03:02:21;;;;;;;;;;;;;;;5.16;100.00;103156.00;5054659;28;599;-75
2022/03/23 03:04:48;;;;;;;;;;;;;;;5.04;100.00;103158.94;5054600;28;720;-75
2022/03/23 03:07:15;;;;;;;;;;;;;;;4.97;100.00;103162.59;5054700;28;1953;-75
2022/03/23 03:09:41;;;;;;;;;;;;;;;4.93;100.00;103158.28;5054229;28;1170;-75
2022/03/23 03:12:08;;;;;;;;;;;;;;;4.93;100.00;103160.06;5054557;28;974;-75
2022/03/23 03:14:34;;;;;;;;;;;;;;;4.99;100.00;103170.56;5054390;28;811;-75
2022/03/23 03:17:00;;;;;;;;;;;;;;;5.06;100.00;103170.41;5054474;28;964;-75
2022/03/23 03:19:26;;;;;;;;;;;;;;;5.10;100.00;103168.53;5053948;28;819;-75
2022/03/23 03:21:54;;;;;;;;;;;;;;;5.11;100.00;103168.53;5053954;28;1272;-75
2022/03/23 03:24:20;;;;;;;;;;;;;;;5.17;100.00;103165.75;5054477;28;787;-75
2022/03/23 03:26:47;;;;;;;;;;;;;;;5.21;100.00;103169.22;5054152;28;1898;-75
2022/03/23 03:29:13;;;;;;;;;;;;;;;5.10;100.00;103169.41;5053987;28;794;-75
2022/03/23 03:31:39;;;;;;;;;;;;;;;4.93;100.00;103170.69;5054448;28;1173;-75
2022/03/23 03:34:05;;;;;;;;;;;;;;;4.78;100.00;103182.47;5069843;28;892;-75
2022/03/23 03:36:31;;;;;;;;;;;;;;;4.68;100.00;103171.16;5054347;28;522;-75
2022/03/23 03:38:57;;;;;;;;;;;;;;;4.59;100.00;103180.16;5053662;28;823;-75
2022/03/23 03:41:23;;;;;;;;;;;;;;;4.56;100.00;103184.66;5054071;28;1248;-75
2022/03/23 03:43:49;;;;;;;;;;;;;;;4.48;100.00;103186.56;5054473;28;962;-75
2022/03/23 03:46:15;;;;;;;;;;;;;;;4.46;100.00;103177.75;5054439;28;1898;-74
2022/03/23 03:48:41;;;;;;;;;;;;;;;4.51;100.00;103183.84;5053548;28;916;-75
2022/03/23 03:51:08;;;;;;;;;;;;;;;4.54;100.00;103187.34;5054073;28;1221;-75
2022/03/23 03:53:35;;;;;;;;;;;;;;;4.51;100.00;103179.41;5054127;28;798;-75
2022/03/23 03:56:02;;;;;;;;;;;;;;;4.57;100.00;103187.28;5054453;28;896;-75
2022/03/23 03:58:28;;;;;;;;;;;;;;;4.60;100.00;103186.34;5053804;28;845;-75
2022/03/23 04:00:54;;;;;;;;;;;;;;;4.63;100.00;103180.13;5053806;28;1291;-75
2022/03/23 04:03:20;;;;;;;;;;;;;;;4.57;100.00;103181.09;5053939;28;834;-75
2022/03/23 04:05:46;;;;;;;;;;;;;;;4.52;100.00;103186.50;5054043;28;1894;-75
2022/03/23 04:08:12;;;;;;;;;;;;;;;4.49;100.00;103181.22;5053440;28;791;-75
2022/03/23 04:10:39;;;;;;;;;;;;;;;4.43;100.00;103185.78;5053877;28;1255;-75
2022/03/23 04:13:07;;;;;;;;;;;;;;;4.34;100.00;103180.63;5053895;28;727;-75
2022/03/23 04:15:35;;;;;;;;;;;;;;;4.26;100.00;103188.72;5053881;28;891;-75
2022/03/23 04:18:02;;;;;;;;;;;;;;;4.27;100.00;103195.78;5054307;28;791;-75
2022/03/23 04:20:29;;;;;;;;;;;;;;;4.32;100.00;103186.81;5053568;28;1181;-75
2022/03/23 04:22:55;;;;;;;;;;;;;;;4.39;100.00;103197.38;5053975;28;842;-75
2022/03/23 04:25:21;;;;;;;;;;;;;;;4.48;100.00;103195.44;5053857;28;1898;-75
2022/03/23 04:27:53;;;;;;;;;;;;;;;4.51;100.00;103197.16;5054148;28;974;-75
2022/03/23 04:30:22;;;;;;;;;;;;;;;4.55;100.00;103196.22;5053437;28;1165;-75
2022/03/23 04:32:50;;;;;;;;;;;;;;;4.53;100.00;103198.91;5054621;28;802;-75
2022/03/23 04:35:17;;;;;;;;;;;;;;;4.52;100.00;103199.81;5053850;28;942;-75
2022/03/23 04:37:44;;;;;;;;;;;;;;;4.56;100.00;103195.31;5054145;28;811;-75
2022/03/23 04:40:12;;;;;;;;;;;;;;;4.62;100.00;103197.81;5054184;28;1177;-75
2022/03/23 04:42:40;;;;;;;;;;;;;;;4.65;100.00;103195.13;5057660;28;806;-75
2022/03/23 04:45:07;;;;;;;;;;;;;;;4.67;100.00;103193.31;5057474;28;892;-75
2022/03/23 04:47:34;;;;;;;;;;;;;;;4.61;100.00;103207.59;5057475;28;1965;-75
2022/03/23 04:50:01;;;;;;;;;;;;;;;4.62;100.00;103203.16;5056850;28;1193;-74
2022/03/23 04:52:27;;;;;;;;;;;;;;;4.67;100.00;103203.09;5057755;28;830;-75
2022/03/23 04:54:56;;;;;;;;;;;;;;;4.70;100.00;103206.53;5057750;28;826;-75
2022/03/23 04:57:26;;;;;;;;;;;;;;;4.74;100.00;103207.38;5056950;28;884;-75
2022/03/23 04:59:55;;;;;;;;;;;;;;;4.72;100.00;103204.75;5056321;28;1181;-75
2022/03/23 05:02:21;;;;;;;;;;;;;;;4.67;100.00;103203.94;5056933;28;821;-75
2022/03/23 05:04:47;;;;;;;;;;;;;;;4.64;100.00;103212.00;5056810;28;731;-75
2022/03/23 05:07:13;;;;;;;;;;;;;;;4.59;100.00;103214.72;5056750;28;1898;-75
2022/03/23 05:09:39;;;;;;;;;;;;;;;4.58;100.00;103215.63;5056168;28;1191;-75
2022/03/23 05:12:06;;;;;;;;;;;;;;;4.65;100.00;103210.22;5056760;28;810;-75
2022/03/23 05:14:32;;;;;;;;;;;;;;;4.66;100.00;103215.50;5056630;28;791;-75
2022/03/23 05:16:58;;;;;;;;;;;;;;;4.63;100.00;103220.88;5056666;28;842;-75
2022/03/23 05:19:24;;;;;;;;;;;;;;;4.58;100.00;103220.94;5056114;28;806;-75
2022/03/23 05:21:50;;;;;;;;;;;;;;;4.56;100.00;103219.22;5056693;28;1283;-75
2022/03/23 05:24:16;;;;;;;;;;;;;;;4.59;100.00;103216.50;5071823;28;854;-75
2022/03/23 05:26:42;;;;;;;;;;;;;;;4.58;100.00;103223.59;5056514;28;1894;-75
2022/03/23 05:29:09;;;;;;;;;;;;;;;4.60;100.00;103226.22;5071190;28;827;-75
2022/03/23 05:31:35;;;;;;;;;;;;;;;4.59;100.00;103222.69;5056207;28;1362;-75
2022/03/23 05:34:01;;;;;;;;;;;;;;;4.55;100.00;103217.47;5056398;28;1070;-75
2022/03/23 05:36:27;;;;;;;;;;;;;;;4.55;100.00;103217.47;5056558;28;518;-75
2022/03/23 05:38:53;;;;;;;;;;;;;;;4.56;100.00;103219.22;5055826;28;799;-75
2022/03/23 05:41:19;;;;;;;;;;;;;;;4.57;100.00;103227.16;5056322;28;1312;-75
2022/03/23 05:43:45;;;;;;;;;;;;;;;4.57;100.00;103223.63;5056013;28;739;-75
2022/03/23 05:46:11;;;;;;;;;;;;;;;4.60;100.00;103216.47;5055987;28;1902;-75
2022/03/23 05:48:37;;;;;;;;;;;;;;;4.65;100.00;103220.84;5055699;28;982;-74
2022/03/23 05:51:04;;;;;;;;;;;;;;;4.66;100.00;103231.44;5055557;28;1304;-75
2022/03/23 05:53:30;;;;;;;;;;;;;;;4.67;100.00;103234.97;5055542;28;967;-75
2022/03/23 05:55:56;;;;;;;;;;;;;;;4.73;100.00;103229.56;5071254;28;909;-75
2022/03/23 05:58:22;;;;;;;;;;;;;;;4.81;100.00;103238.25;5055468;28;815;-75
2022/03/23 06:00:48;;;;;;;;;;;;;;;4.87;100.00;103236.38;5055755;28;1201;-74
2022/03/23 06:03:14;;;;;;;;;;;;;;;4.95;100.00;103243.34;5055752;28;903;-75
2022/03/23 06:05:40;;;;;;;;;;;;;;;5.00;100.00;103236.13;5055636;28;951;-75
2022/03/23 06:08:07;;;;;;;;;;;;;;;5.04;100.00;103232.53;5055464;28;1894;-74
2022/03/23 06:10:33;;;;;;;;;;;;;;;5.10;100.00;103233.28;5055112;28;1555;-75
2022/03/23 06:12:59;;;;;;;;;;;;;;;5.15;100.00;103241.19;5055551;28;873;-75
2022/03/23 06:15:26;;;;;;;;;;;;;;;5.22;100.00;103244.59;5055415;28;799;-75
2022/03/23 06:17:53;;;;;;;;;;;;;;;5.31;100.00;103239.97;5055442;28;883;-75
2022/03/23 06:20:19;;;;;;;;;;;;;;;5.41;100.00;103243.34;5054842;28;1169;-75
2022/03/23 06:22:45;;;;;;;;;;;;;;;5.50;100.00;103245.78;5070563;28;848;-74
2022/03/23 06:25:11;;;;;;;;;;;;;;;5.60;100.00;103241.13;5055778;28;939;-75
2022/03/23 06:27:38;;;;;;;;;;;;;;;5.65;100.00;103248.13;5055547;28;1898;-75
2022/03/23 06:30:05;;;;;;;;;;;;;;;5.72;100.00;103248.88;5054654;28;1193;-75
2022/03/23 06:32:33;;;;;;;;;;;;;;;5.83;100.00;103245.97;5056325;28;896;-75
2022/03/23 06:35:00;;;;;;;;;;;;;;;5.92;100.00;103251.13;5055090;28;840;-75
2022/03/23 06:37:27;;;;;;;;;;;;;;;6.00;100.00;103250.06;5055035;28;879;-75
2022/03/23 06:39:54;;;;;;;;;;;;;;;6.08;100.00;103248.97;5054353;28;1185;-75
2022/03/23 06:42:20;;;;;;;;;;;;;;;6.20;100.00;103254.03;5055165;28;807;-75
2022/03/23 06:44:46;;;;;;;;;;;;;;;6.29;100.00;103249.38;5055288;28;755;-75
2022/03/23 06:47:12;;;;;;;;;;;;;;;6.40;100.00;103254.44;5055019;28;1975;-75
2022/03/23 06:49:38;;;;;;;;;;;;;;;6.49;100.00;103251.56;5054526;28;1220;-75
2022/03/23 06:52:04;;;;;;;;;;;;;;;6.60;100.00;103253.94;5054816;28;828;-75
2022/03/23 06:54:30;;;;;;;;;;;;;;;6.74;100.00;103254.44;5070189;28;834;-75
2022/03/23 06:56:56;;;;;;;;;;;;;;;6.85;100.00;103256.84;5055150;28;883;-75
2022/03/23 06:59:22;;;;;;;;;;;;;;;6.96;100.00;103256.56;5069000;28;873;-75
2022/03/23 07:01:48;;;;;;;;;;;;;;;7.06;100.00;103256.25;5054507;28;1165;-75
2022/03/23 07:04:15;;;;;;;;;;;;;;;7.17;100.00;103264.84;5054265;28;833;-75
2022/03/23 07:06:41;;;;;;;;;;;;;;;7.33;100.00;103261.75;5054543;28;1957;-75
2022/03/23 07:11:54;;;;;;;;;;;;;;;7.61;100.00;103264.53;5054441;28;1398;-75
2022/03/23 07:14:19;;;;;;;;;;;;;;;7.74;100.00;103269.44;5054328;28;974;-75
2022/03/23 07:16:46;;;;;;;;;;;;;;;7.87;92.46;103271.78;5054375;28;747;-75
2022/03/23 07:19:13;;;;;;;;;;;;;;;7.97;94.15;103265.22;5053882;28;803;-75
2022/03/23 07:21:39;;;;;;;;;;;;;;;8.11;88.67;103264.78;5054172;28;1166;-75
2022/03/23 07:24:05;;;;;;;;;;;;;;;8.23;88.18;103269.72;5053830;28;912;-75
2022/03/23 07:26:31;;;;;;;;;;;;;;;8.34;80.63;103268.50;5054156;28;1879;-75
2022/03/23 07:28:57;;;;;;;;;;;;;;;8.47;81.45;103265.44;5053859;28;989;-75
2022/03/23 07:31:23;;;;;;;;;;;;;;;8.53;82.98;103276.78;5054278;28;1169;-75
2022/03/23 07:33:50;;;;;;;;;;;;;;;8.60;82.53;103274.78;5054249;28;823;-75
2022/03/23 07:36:16;;;;;;;;;;;;;;;8.70;78.21;103267.34;5054282;28;888;-75
2022/03/23 07:38:42;;;;;;;;;;;;;;;8.79;77.16;103272.38;5053578;28;921;-75
2022/03/23 07:41:08;;;;;;;;;;;;;;;8.93;79.93;103270.09;5054127;28;1260;-75
2022/03/23 07:43:34;;;;;;;;;;;;;;;9.09;73.64;103273.09;5054349;28;807;-75
2022/03/23 07:46:00;;;;;;;;;;;;;;;9.26;75.43;103280.56;5069488;28;856;-75
2022/03/23 07:48:26;;;;;;;;;;;;;;;9.33;72.08;103274.03;5053360;28;2037;-75
2022/03/23 07:50:52;;;;;;;;;;;;;;;9.41;70.63;103274.63;5053814;28;1177;-75
2022/03/23 07:53:19;;;;;;;;;;;;;;;9.45;73.26;103282.50;5054214;28;819;-75
2022/03/23 07:55:45;;;;;;;;;;;;;;;9.55;74.74;103283.03;5054283;28;791;-75
2022/03/23 07:58:11;;;;;;;;;;;;;;;9.70;69.47;103278.88;5053603;28;807;-75
2022/03/23 08:00:38;;;;;;;;;;;;;;;9.83;71.18;103290.88;5053902;28;1197;-75
2022/03/23 08:03:07;;;;;;;;;;;;;;;9.93;67.86;103284.25;5053891;28;859;-75
2022/03/23 08:05:33;;;;;;;;;;;;;;;10.05;66.67;103288.28;5054267;28;810;-75
2022/03/23 08:07:59;;;;;;;;;;;;;;;10.15;67.69;103289.66;5053984;28;1890;-75
2022/03/23 08:10:25;;;;;;;;;;;;;;;10.24;63.37;103283.09;5053341;28;1260;-75
2022/03/23 08:12:51;;;;;;;;;;;;;;;10.41;65.55;103293.09;5069401;28;906;-75
2022/03/23 08:15:17;;;;;;;;;;;;;;;10.48;65.34;103289.25;5055333;28;716;-75
2022/03/23 08:17:43;;;;;;;;;;;;;;;10.62;62.04;103290.44;5057766;28;899;-75
2022/03/23 08:22:59;;;;;;;;;;;;;;;11.03;60.19;103286.94;5057949;28;615;-75
2022/03/23 08:25:26;;;;;;;;;;;;;;;11.12;58.83;103284.72;5058055;28;818;-75
2022/03/23 08:27:53;;;;;;;;;;;;;;;11.25;58.71;103281.50;5057589;28;1893;-75
2022/03/23 08:30:19;;;;;;;;;;;;;;;11.37;58.63;103279.13;5057046;28;1185;-75
2022/03/23 08:32:45;;;;;;;;;;;;;;;11.39;59.50;103287.97;5072395;28;901;-75
2022/03/23 08:35:11;;;;;;;;;;;;;;;11.53;56.81;103283.81;5057391;28;923;-75
2022/03/23 08:37:38;;;;;;;;;;;;;;;11.69;56.01;103283.00;5057690;28;823;-75
2022/03/23 08:40:05;;;;;;;;;;;;;;;11.81;56.34;103281.63;5056691;28;1185;-75
2022/03/23 08:42:32;;;;;;;;;;;;;;;11.88;56.48;103283.06;5057421;28;1123;-76
2022/03/23 08:44:58;;;;;;;;;;;;;;;12.05;57.47;103285.84;5057430;28;849;-75
2022/03/23 08:47:24;;;;;;;;;;;;;;;12.18;55.15;103278.03;5057162;28;1992;-76
2022/03/23 08:49:50;;;;;;;;;;;;;;;12.32;55.41;103283.63;5056761;28;1193;-75
2022/03/23 08:52:16;;;;;;;;;;;;;;;12.45;54.24;103280.34;5057099;28;660;-76
2022/03/23 08:54:42;;;;;;;;;;;;;;;12.55;54.31;103285.19;5057215;28;821;-75
2022/03/23 08:57:08;;;;;;;;;;;;;;;12.69;54.65;103276.44;5057004;28;814;-76
2022/03/23 08:59:34;;;;;;;;;;;;;;;12.79;55.06;103271.44;5056232;28;1247;-76
2022/03/23 09:02:00;;;;;;;;;;;;;;;12.90;53.15;103280.72;5056624;28;836;-75
2022/03/23 09:04:26;;;;;;;;;;;;;;;12.96;53.73;103275.94;5057408;28;798;-75
2022/03/23 09:06:52;;;;;;;;;;;;;;;13.06;52.98;103280.78;5056831;28;1893;-75
2022/03/23 09:09:18;;;;;;;;;;;;;;;13.17;52.17;103280.22;5054167;28;834;-75
2022/03/23 09:11:44;;;;;;;;;;;;;;;13.36;53.18;103283.69;5057133;28;1201;-76
2022/03/23 09:14:12;;;;;;;;;;;;;;;13.46;50.84;103282.25;5056784;28;901;-75
2022/03/23 09:16:38;;;;;;;;;;;;;;;13.64;51.66;103277.69;5056684;28;813;-76
2022/03/23 09:19:05;;;;;;;;;;;;;;;13.78;48.23;103276.97;5056113;28;791;-76
2022/03/23 09:21:32;;;;;;;;;;;;;;;13.92;47.27;103268.94;5056592;28;1313;-75
2022/03/23 09:23:59;;;;;;;;;;;;;;;13.97;47.78;103277.69;5056414;28;814;-76
2022/03/23 09:26:25;;;;;;;;;;;;;;;14.13;47.31;103271.41;5056413;28;810;-75
2022/03/23 09:28:51;;;;;;;;;;;;;;;14.29;46.27;103273.13;5055986;28;1973;-75
2022/03/23 09:31:18;;;;;;;;;;;;;;;14.38;47.00;103270.88;5056185;28;1193;-75
2022/03/23 09:33:48;;;;;;;;;;;;;;;14.46;45.75;103271.34;5056272;28;810;-76
2022/03/23 09:38:59;;;;;;;;;;;;;;;14.71;45.12;103266.22;5056293;28;520;-76
2022/03/23 09:41:26;;;;;;;;;;;;;;;14.84;45.64;103269.91;5056057;28;1189;-75
2022/03/23 09:43:52;;;;;;;;;;;;;;;14.93;44.72;103266.66;5056232;28;903;-76
2022/03/23 09:46:19;;;;;;;;;;;;;;;15.07;45.04;103275.78;5071450;28;809;-76
2022/03/23 09:48:45;;;;;;;;;;;;;;;15.25;42.90;103271.09;5055743;28;1972;-76
2022/03/23 09:51:13;;;;;;;;;;;;;;;15.26;43.16;103272.81;5055991;28;1220;-76
2022/03/23 09:53:40;;;;;;;;;;;;;;;15.34;44.44;103265.97;5055854;28;814;-76
2022/03/23 09:56:06;;;;;;;;;;;;;;;15.42;44.09;103268.19;5055836;28;979;-76
2022/03/23 09:58:32;;;;;;;;;;;;;;;15.45;42.57;103268.88;5055409;28;810;-76
2022/03/23 10:00:59;;;;;;;;;;;;;;;15.60;44.23;103266.16;5055793;28;1177;-76
2022/03/23 10:03:43;;;;;;;;;;;;;;;15.75;47.12;103268.81;5055774;28;803;-76
2022/03/23 10:06:38;;;;;;;;;;;;;;;15.90;44.47;103266.94;5055736;28;917;-76
2022/03/23 10:09:26;;;;;;;;;;;;;;;16.00;43.37;103267.22;5055351;28;2016;-76
2022/03/23 10:12:29;;;;;;;;;;;;;;;16.04;42.71;103266.06;5055461;28;1216;-76
2022/03/23 10:15:36;;;;;;;;;;;;;;;16.10;41.15;103264.78;5055455;28;821;-76
2022/03/23 10:18:34;;;;;;;;;;;;;;;16.27;41.28;103261.84;5055431;28;930;-75
2022/03/23 10:21:00;;;;;;;;;;;;;;;16.45;42.31;103254.34;5070637;28;1248;-75
2022/03/23 10:23:26;;;;;;;;;;;;;;;16.57;39.88;103250.78;5055249;28;816;-76
2022/03/23 10:25:52;;;;;;;;;;;;;;;16.63;38.14;103242.25;5055321;28;803;-75
2022/03/23 10:28:18;;;;;;;;;;;;;;;16.75;36.79;103243.28;5069855;28;1894;-76
2022/03/23 10:30:46;;;;;;;;;;;;;;;16.87;38.46;103254.16;5055180;28;1181;-76
2022/03/23 10:33:25;;;;;;;;;;;;;;;17.00;38.45;103250.56;5055244;28;822;-76
2022/03/23 10:35:52;;;;;;;;;;;;;;;17.29;37.09;103246.69;5055274;28;820;-76
2022/03/23 10:38:20;;;;;;;;;;;;;;;17.62;35.21;103242.56;5054051;28;973;-76
2022/03/23 10:40:51;;;;;;;;;;;;;;;19.01;34.10;103240.25;5055145;28;1276;-76
2022/03/23 10:43:37;;;;;;;;;;;;;;;21.36;31.15;103239.72;5070360;28;835;-74
2022/03/23 10:46:07;;;;;;;;;;;;;;;23.36;29.16;103234.75;5055045;28;532;-74
2022/03/23 10:48:33;;;;;;;;;;;;;;;24.42;26.02;103231.47;5054272;28;1906;-74
2022/03/23 10:51:00;;;;;;;;;;;;;;;24.97;26.00;103223.00;5054558;28;1160;-74
2022/03/23 10:53:38;;;;;;;;;;;;;;;25.02;25.21;103222.56;5054659;28;833;-74
2022/03/23 10:56:05;;;;;;;;;;;;;;;25.78;24.50;103213.56;5054735;28;902;-74
2022/03/23 10:58:32;;;;;;;;;;;;;;;25.75;24.06;103214.72;5054028;28;818;-74
2022/03/23 11:01:05;;;;;;;;;;;;;;;25.98;25.28;103206.75;5054391;28;1256;-74
2022/03/23 11:03:47;;;;;;;;;;;;;;;26.32;24.79;103206.63;5054788;28;589;-74
2022/03/23 11:06:16;;;;;;;;;;;;;;;26.48;24.29;103208.56;5054456;28;535;-74
2022/03/23 11:08:44;;;;;;;;;;;;;;;26.35;23.06;103205.41;5053703;28;1977;-74
2022/03/23 11:16:50;;;;;;;;;;;;;;;26.69;22.41;103192.38;5061221;28;517;-74
2022/03/23 11:19:26;;;;;;;;;;;;;;;26.74;21.46;103197.34;5053663;28;793;-74
2022/03/23 11:22:02;;;;;;;;;;;;;;;26.66;21.08;103191.88;5054636;28;1374;-74
2022/03/23 11:24:40;;;;;;;;;;;;;;;27.05;20.94;103194.78;5054316;28;808;-74
2022/03/23 11:27:09;;;;;;;;;;;;;;;27.72;22.81;103193.34;5054479;28;558;-74
2022/03/23 11:29:37;;;;;;;;;;;;;;;27.70;21.11;103189.06;5053803;28;1871;-74
2022/03/23 11:32:07;;;;;;;;;;;;;;;27.61;21.75;103192.84;5054274;28;885;-74
2022/03/23 11:34:36;;;;;;;;;;;;;;;27.22;20.48;103185.41;5054116;28;823;-75
2022/03/23 11:37:04;;;;;;;;;;;;;;;27.03;20.56;103181.16;5054303;28;886;-75
2022/03/23 11:39:31;;;;;;;;;;;;;;;27.83;21.51;103185.72;5053751;28;834;-75
2022/03/23 11:41:58;;;;;;;;;;;;;;;28.37;20.67;103171.91;5054120;28;762;-74
2022/03/23 11:44:26;;;;;;;;;;;;;;;28.53;21.17;103167.13;5054206;28;887;-74
2022/03/23 11:46:57;;;;;;;;;;;;;;;29.74;22.15;103173.41;5054300;28;802;-75
2022/03/23 11:49:35;;;;;;;;;;;;;;;29.78;21.04;103167.25;5055348;28;1902;-75
2022/03/23 11:52:22;;;;;;;;;;;;;;;29.56;19.68;103165.50;5058053;28;643;-74
2022/03/23 11:57:54;;;;;;;;;;;;;;;29.72;20.25;103156.13;5057899;28;563;-74
2022/03/23 12:00:21;;;;;;;;;;;;;;;29.52;19.58;103151.22;5057526;28;1177;-74
2022/03/23 12:02:48;;;;;;;;;;;;;;;29.52;21.17;103153.13;5073332;28;813;-75
2022/03/23 12:05:24;;;;;;;;;;;;;;;29.83;19.14;103150.94;5058020;28;888;-74
2022/03/23 12:07:50;;;;;;;;;;;;;;;30.59;20.05;103142.13;5057897;28;1893;-74
2022/03/23 12:10:21;;;;;;;;;;;;;;;30.99;19.77;103144.16;5057395;28;1169;-74
2022/03/23 12:12:47;;;;;;;;;;;;;;;31.46;19.17;103136.94;5057780;28;883;-74
2022/03/23 12:15:28;;;;;;;;;;;;;;;30.74;18.38;103138.22;5058031;28;925;-74
2022/03/23 12:17:54;;;;;;;;;;;;;;;30.87;20.12;103122.72;5057570;28;898;-74
2022/03/23 12:20:46;;;;;;;;;;;;;;;31.26;19.62;103130.44;5057019;28;1177;-74
2022/03/23 12:23:15;;;;;;;;;;;;;;;30.65;19.58;103122.78;5057754;28;667;-74
2022/03/23 12:25:52;;;;;;;;;;;;;;;30.80;18.79;103128.25;5057508;28;821;-74
2022/03/23 12:28:50;;;;;;;;;;;;;;;31.43;19.93;103128.19;5057071;28;1963;-74
2022/03/23 12:31:16;;;;;;;;;;;;;;;30.88;18.40;103124.47;5056222;28;1664;-74
2022/03/23 12:34:23;;;;;;;;;;;;;;;31.14;19.26;103121.81;5057548;28;790;-74
2022/03/23 12:36:57;;;;;;;;;;;;;;;32.11;19.66;103124.31;5057012;28;867;-72
2022/03/23 12:39:27;;;;;;;;;;;;;;;32.73;18.25;103116.63;5056452;28;684;-72
2022/03/23 12:41:53;;;;;;;;;;;;;;;32.82;19.23;103118.13;5056882;28;1177;-72
2022/03/23 12:44:28;;;;;;;;;;;;;;;32.19;18.06;103112.16;5057032;28;870;-72
2022/03/23 12:46:54;;;;;;;;;;;;;;;32.15;18.13;103117.31;5057108;28;536;-72
2022/03/23 12:57:52;;;;;;;;;;;;;;;32.70;16.76;103105.97;5056977;28;600;-72
2022/03/23 13:00:33;;;;;;;;;;;;;;;33.40;17.51;103111.78;5056128;28;1347;-72
2022/03/23 13:03:05;;;;;;;;;;;;;;;33.55;17.29;103109.59;5056307;28;807;-73
2022/03/23 13:05:32;;;;;;;;;;;;;;;33.23;16.21;103091.91;5056480;28;930;-72
2022/03/23 13:07:58;;;;;;;;;;;;;;;33.19;16.17;103093.44;5056331;28;1894;-72
2022/03/23 13:10:26;;;;;;;;;;;;;;;33.46;16.67;103094.22;5056290;28;1196;-72
2022/03/23 13:13:08;;;;;;;;;;;;;;;34.50;16.63;103090.91;5056564;28;811;-72
2022/03/23 13:15:34;;;;;;;;;;;;;;;34.54;17.65;103085.75;5056246;28;889;-72
2022/03/23 13:18:01;;;;;;;;;;;;;;;34.85;15.97;103093.13;5056579;28;814;-72
2022/03/23 13:20:28;;;;;;;;;;;;;;;35.50;15.72;103088.72;5055728;28;1236;-72
2022/03/23 13:22:55;;;;;;;;;;;;;;;34.95;15.97;103094.31;5056657;28;791;-73
2022/03/23 13:25:20;;;;;;;;;;;;;;;35.31;17.15;103089.81;5056463;28;959;-72
2022/03/23 13:27:48;;;;;;;;;;;;;;;35.41;15.32;103087.34;5056359;28;743;-72
2022/03/23 13:30:17;;;;;;;;;;;;;;;35.66;15.13;103086.31;5055693;28;1209;-73